National Weather Service Raw Text Product

Displaying AFOS PIL: TAFFOD Received: 2018-08-11 07:42 UTC


701 
FTUS43 KDMX 110742 AAF
TAFFOD
TAF AMD
KFOD 110742Z 1108/1206 VRB03KT 1/4SM FG BKN001
      TEMPO 1108/1112 2SM BR VV002
     FM111300 VRB02KT 6SM BR FEW200
     FM111400 14004KT P6SM SCT250=